LHR weather

Public forecast

Using degrees Celsius for public forecast. Weather courtesy of forecast.io.

Current aviation weather report (METAR) for London Heathrow Airport

Retrieved 2020/08/14 23:20 UTC (8 minutes ago):

EGLL 142320Z AUTO 04004KT 360V060 8000 OVC005 18/17 Q1015 TEMPO BKN004

Aviation forecast (TAF) for London Heathrow Airport

Retrieved 2020/08/14 18:00 UTC (5 hours ago):

TAF EGLL 141700Z 1418/1524 VRB03KT 9999 BKN007 PROB30 TEMPO 1418/1518 3000 +TSRA PROB40 1422/1509 BKN004 TEMPO 1512/1518 BKN018